sensor_id;sensor_type;location;lat;lon;timestamp;temperature;humidity
20856;DHT22;63058;49.424;8.420;2022-12-07T05:58:26;6.90;99.90
20856;DHT22;63058;49.424;8.420;2022-12-07T06:01:10;6.90;99.90
20856;DHT22;63058;49.424;8.420;2022-12-07T06:03:36;7.00;99.90
20856;DHT22;63058;49.424;8.420;2022-12-07T06:06:02;6.90;99.90
20856;DHT22;63058;49.424;8.420;2022-12-07T06:08:29;6.90;99.90
20856;DHT22;63058;49.424;8.420;2022-12-07T06:10:55;7.00;99.90
20856;DHT22;63058;49.424;8.420;2022-12-07T06:13:40;7.10;99.90
20856;DHT22;63058;49.424;8.420;2022-12-07T06:16:06;7.10;99.90
20856;DHT22;63058;49.424;8.420;2022-12-07T06:18:32;7.10;99.90
20856;DHT22;63058;49.424;8.420;2022-12-07T06:20:58;7.10;99.90
20856;DHT22;63058;49.424;8.420;2022-12-07T06:23:24;7.10;99.90
20856;DHT22;63058;49.424;8.420;2022-12-07T06:25:51;7.30;99.90
20856;DHT22;63058;49.424;8.420;2022-12-07T06:28:16;7.10;99.90
20856;DHT22;63058;49.424;8.420;2022-12-07T06:30:43;7.20;99.90
20856;DHT22;63058;49.424;8.420;2022-12-07T06:33:09;7.20;99.90
20856;DHT22;63058;49.424;8.420;2022-12-07T06:35:37;7.20;99.90
20856;DHT22;63058;49.424;8.420;2022-12-07T06:38:03;7.20;99.90
20856;DHT22;63058;49.424;8.420;2022-12-07T06:40:29;7.30;99.90
20856;DHT22;63058;49.424;8.420;2022-12-07T06:42:55;7.30;99.90
20856;DHT22;63058;49.424;8.420;2022-12-07T06:45:21;7.30;99.90
20856;DHT22;63058;49.424;8.420;2022-12-07T06:47:46;7.30;99.90
20856;DHT22;63058;49.424;8.420;2022-12-07T06:50:16;7.40;99.90
20856;DHT22;63058;49.424;8.420;2022-12-07T06:52:42;7.40;99.90
20856;DHT22;63058;49.424;8.420;2022-12-07T06:55:08;7.40;99.90
20856;DHT22;63058;49.424;8.420;2022-12-07T06:57:33;7.40;99.90
20856;DHT22;63058;49.424;8.420;2022-12-07T06:59:59;7.40;99.90
20856;DHT22;63058;49.424;8.420;2022-12-07T07:02:26;7.50;99.90
20856;DHT22;63058;49.424;8.420;2022-12-07T07:04:52;7.50;99.90
20856;DHT22;63058;49.424;8.420;2022-12-07T07:07:18;7.50;99.90
20856;DHT22;63058;49.424;8.420;2022-12-07T07:09:44;7.50;99.90
20856;DHT22;63058;49.424;8.420;2022-12-07T07:12:11;7.50;99.90
20856;DHT22;63058;49.424;8.420;2022-12-07T07:14:38;7.50;99.90
20856;DHT22;63058;49.424;8.420;2022-12-07T07:17:03;7.50;99.90
20856;DHT22;63058;49.424;8.420;2022-12-07T07:19:29;7.60;99.90
20856;DHT22;63058;49.424;8.420;2022-12-07T07:21:56;7.50;99.90
20856;DHT22;63058;49.424;8.420;2022-12-07T07:24:22;7.60;99.90
20856;DHT22;63058;49.424;8.420;2022-12-07T07:26:47;7.70;99.90
20856;DHT22;63058;49.424;8.420;2022-12-07T07:29:13;7.70;99.90
20856;DHT22;63058;49.424;8.420;2022-12-07T07:31:39;7.70;99.90
20856;DHT22;63058;49.424;8.420;2022-12-07T07:34:04;7.70;99.90
20856;DHT22;63058;49.424;8.420;2022-12-07T07:36:30;7.70;99.90
20856;DHT22;63058;49.424;8.420;2022-12-07T07:38:56;7.60;99.90
20856;DHT22;63058;49.424;8.420;2022-12-07T07:41:23;7.70;99.90
20856;DHT22;63058;49.424;8.420;2022-12-07T07:43:50;7.80;99.90
20856;DHT22;63058;49.424;8.420;2022-12-07T07:46:18;7.80;99.90
20856;DHT22;63058;49.424;8.420;2022-12-07T07:48:43;7.80;99.90
20856;DHT22;63058;49.424;8.420;2022-12-07T07:51:09;7.80;99.90
20856;DHT22;63058;49.424;8.420;2022-12-07T07:53:35;7.90;99.90
20856;DHT22;63058;49.424;8.420;2022-12-07T07:56:01;7.90;99.90
20856;DHT22;63058;49.424;8.420;2022-12-07T07:58:27;7.90;99.90
20856;DHT22;63058;49.424;8.420;2022-12-07T08:00:55;8.00;99.90
20856;DHT22;63058;49.424;8.420;2022-12-07T08:03:21;8.00;99.90
20856;DHT22;63058;49.424;8.420;2022-12-07T08:05:48;8.20;99.90
20856;DHT22;63058;49.424;8.420;2022-12-07T08:08:14;8.10;99.90
20856;DHT22;63058;49.424;8.420;2022-12-07T08:10:39;8.10;99.90
20856;DHT22;63058;49.424;8.420;2022-12-07T08:13:07;8.10;99.90
20856;DHT22;63058;49.424;8.420;2022-12-07T08:15:40;8.10;99.90
20856;DHT22;63058;49.424;8.420;2022-12-07T08:18:06;8.30;99.90
20856;DHT22;63058;49.424;8.420;2022-12-07T08:20:33;8.10;99.90
20856;DHT22;63058;49.424;8.420;2022-12-07T08:22:59;8.10;99.90
20856;DHT22;63058;49.424;8.420;2022-12-07T08:25:27;8.10;99.90
20856;DHT22;63058;49.424;8.420;2022-12-07T08:27:53;8.10;99.90
20856;DHT22;63058;49.424;8.420;2022-12-07T08:30:19;8.10;99.90
20856;DHT22;63058;49.424;8.420;2022-12-07T08:32:46;8.10;99.90
20856;DHT22;63058;49.424;8.420;2022-12-07T08:35:13;8.10;99.90
20856;DHT22;63058;49.424;8.420;2022-12-07T08:37:39;8.10;99.90
20856;DHT22;63058;49.424;8.420;2022-12-07T08:40:06;8.10;99.90
20856;DHT22;63058;49.424;8.420;2022-12-07T08:42:32;8.10;99.90
20856;DHT22;63058;49.424;8.420;2022-12-07T08:45:08;8.10;99.90
20856;DHT22;63058;49.424;8.420;2022-12-07T08:47:36;8.20;99.90
20856;DHT22;63058;49.424;8.420;2022-12-07T08:50:04;8.20;99.90
20856;DHT22;63058;49.424;8.420;2022-12-07T08:52:32;8.10;99.90
20856;DHT22;63058;49.424;8.420;2022-12-07T08:54:59;8.20;99.90
20856;DHT22;63058;49.424;8.420;2022-12-07T08:57:28;8.20;99.90
20856;DHT22;63058;49.424;8.420;2022-12-07T08:59:54;8.20;99.90
20856;DHT22;63058;49.424;8.420;2022-12-07T09:02:20;8.30;99.90
20856;DHT22;63058;49.424;8.420;2022-12-07T09:04:45;8.30;99.90
20856;DHT22;63058;49.424;8.420;2022-12-07T09:07:11;8.40;99.90
20856;DHT22;63058;49.424;8.420;2022-12-07T09:09:37;8.40;99.90
20856;DHT22;63058;49.424;8.420;2022-12-07T09:12:03;8.50;99.90
20856;DHT22;63058;49.424;8.420;2022-12-07T09:14:29;8.50;99.90
20856;DHT22;63058;49.424;8.420;2022-12-07T09:16:55;8.60;99.90
20856;DHT22;63058;49.424;8.420;2022-12-07T09:19:20;8.60;99.90
20856;DHT22;63058;49.424;8.420;2022-12-07T09:21:46;8.70;99.90
20856;DHT22;63058;49.424;8.420;2022-12-07T09:24:13;8.70;99.90
20856;DHT22;63058;49.424;8.420;2022-12-07T09:26:38;8.70;99.90
20856;DHT22;63058;49.424;8.420;2022-12-07T09:29:05;8.70;99.90
20856;DHT22;63058;49.424;8.420;2022-12-07T09:31:31;8.70;99.90
20856;DHT22;63058;49.424;8.420;2022-12-07T09:33:59;8.60;99.90
20856;DHT22;63058;49.424;8.420;2022-12-07T09:36:25;8.60;99.90
20856;DHT22;63058;49.424;8.420;2022-12-07T09:38:52;8.60;99.90
20856;DHT22;63058;49.424;8.420;2022-12-07T09:41:18;8.60;99.90
20856;DHT22;63058;49.424;8.420;2022-12-07T09:43:44;8.60;99.90
20856;DHT22;63058;49.424;8.420;2022-12-07T09:46:16;8.60;99.90
20856;DHT22;63058;49.424;8.420;2022-12-07T09:48:45;8.60;99.90
20856;DHT22;63058;49.424;8.420;2022-12-07T09:51:22;8.70;99.90
20856;DHT22;63058;49.424;8.420;2022-12-07T09:53:49;8.70;99.90
20856;DHT22;63058;49.424;8.420;2022-12-07T09:56:16;8.80;99.90
20856;DHT22;63058;49.424;8.420;2022-12-07T09:58:44;8.80;99.90
20856;DHT22;63058;49.424;8.420;2022-12-07T10:01:20;8.80;99.90
20856;DHT22;63058;49.424;8.420;2022-12-07T10:03:59;8.90;99.90
20856;DHT22;63058;49.424;8.420;2022-12-07T10:06:26;8.90;99.90
20856;DHT22;63058;49.424;8.420;2022-12-07T10:08:52;9.00;99.90
20856;DHT22;63058;49.424;8.420;2022-12-07T10:11:19;9.20;99.90
20856;DHT22;63058;49.424;8.420;2022-12-07T10:13:51;9.20;99.90
20856;DHT22;63058;49.424;8.420;2022-12-07T10:16:31;9.30;99.90
20856;DHT22;63058;49.424;8.420;2022-12-07T10:19:22;9.40;99.90
20856;DHT22;63058;49.424;8.420;2022-12-07T10:24:34;9.50;99.90
20856;DHT22;63058;49.424;8.420;2022-12-07T10:27:00;9.60;99.90
20856;DHT22;63058;49.424;8.420;2022-12-07T10:29:31;9.60;99.90
20856;DHT22;63058;49.424;8.420;2022-12-07T10:34:40;9.60;99.90
20856;DHT22;63058;49.424;8.420;2022-12-07T10:39:54;9.70;99.90
20856;DHT22;63058;49.424;8.420;2022-12-07T10:42:28;9.70;99.90
20856;DHT22;63058;49.424;8.420;2022-12-07T10:45:16;9.80;99.90
20856;DHT22;63058;49.424;8.420;2022-12-07T10:48:06;9.80;99.90
20856;DHT22;63058;49.424;8.420;2022-12-07T10:51:12;9.80;99.90
20856;DHT22;63058;49.424;8.420;2022-12-07T10:54:00;9.90;99.90
20856;DHT22;63058;49.424;8.420;2022-12-07T10:57:04;9.90;99.90
20856;DHT22;63058;49.424;8.420;2022-12-07T11:14:04;9.80;99.90
20856;DHT22;63058;49.424;8.420;2022-12-07T11:48:10;9.70;99.90
20856;DHT22;63058;49.424;8.420;2022-12-07T12:48:35;12.50;98.00
20856;DHT22;63058;49.424;8.420;2022-12-07T12:51:35;12.10;99.20
20856;DHT22;63058;49.424;8.420;2022-12-07T12:54:05;11.80;99.60
20856;DHT22;63058;49.424;8.420;2022-12-07T12:59:24;11.20;99.90
20856;DHT22;63058;49.424;8.420;2022-12-07T13:02:15;11.10;99.90
20856;DHT22;63058;49.424;8.420;2022-12-07T13:15:52;10.30;99.90
20856;DHT22;63058;49.424;8.420;2022-12-07T13:28:39;10.00;99.90
20856;DHT22;63058;49.424;8.420;2022-12-07T13:36:51;10.00;99.90
20856;DHT22;63058;49.424;8.420;2022-12-07T13:39:23;9.90;99.90
20856;DHT22;63058;49.424;8.420;2022-12-07T13:41:57;9.90;99.90
20856;DHT22;63058;49.424;8.420;2022-12-07T13:44:25;9.90;99.90
20856;DHT22;63058;49.424;8.420;2022-12-07T13:49:49;9.90;99.90
20856;DHT22;63058;49.424;8.420;2022-12-07T13:52:26;9.90;99.90
20856;DHT22;63058;49.424;8.420;2022-12-07T13:54:59;10.00;99.90
20856;DHT22;63058;49.424;8.420;2022-12-07T13:57:28;10.00;99.90
20856;DHT22;63058;49.424;8.420;2022-12-07T13:59:54;10.00;99.90
20856;DHT22;63058;49.424;8.420;2022-12-07T14:02:31;10.10;99.90
20856;DHT22;63058;49.424;8.420;2022-12-07T14:05:22;10.10;99.90
20856;DHT22;63058;49.424;8.420;2022-12-07T14:07:53;10.10;99.90
20856;DHT22;63058;49.424;8.420;2022-12-07T14:10:28;10.10;99.90
20856;DHT22;63058;49.424;8.420;2022-12-07T14:12:55;10.00;99.90
20856;DHT22;63058;49.424;8.420;2022-12-07T14:15:30;10.00;99.90
20856;DHT22;63058;49.424;8.420;2022-12-07T14:17:57;10.00;99.90
20856;DHT22;63058;49.424;8.420;2022-12-07T14:20:40;9.90;99.90
20856;DHT22;63058;49.424;8.420;2022-12-07T14:23:24;9.90;99.90
20856;DHT22;63058;49.424;8.420;2022-12-07T14:25:52;9.90;99.90
20856;DHT22;63058;49.424;8.420;2022-12-07T14:28:30;9.80;99.90
20856;DHT22;63058;49.424;8.420;2022-12-07T14:30:56;9.80;99.90
20856;DHT22;63058;49.424;8.420;2022-12-07T14:33:23;9.80;99.90
20856;DHT22;63058;49.424;8.420;2022-12-07T14:35:50;9.70;99.90
20856;DHT22;63058;49.424;8.420;2022-12-07T14:38:20;9.60;99.90
20856;DHT22;63058;49.424;8.420;2022-12-07T14:40:46;9.60;99.90
20856;DHT22;63058;49.424;8.420;2022-12-07T14:43:12;9.60;99.90
20856;DHT22;63058;49.424;8.420;2022-12-07T14:45:40;9.50;99.90
20856;DHT22;63058;49.424;8.420;2022-12-07T14:48:07;9.50;99.90
20856;DHT22;63058;49.424;8.420;2022-12-07T14:50:41;9.40;99.90
20856;DHT22;63058;49.424;8.420;2022-12-07T14:53:13;9.40;99.90
20856;DHT22;63058;49.424;8.420;2022-12-07T14:55:39;9.40;99.90
20856;DHT22;63058;49.424;8.420;2022-12-07T14:58:05;9.30;99.90
20856;DHT22;63058;49.424;8.420;2022-12-07T15:00:31;9.30;99.90
20856;DHT22;63058;49.424;8.420;2022-12-07T15:02:58;9.30;99.90
20856;DHT22;63058;49.424;8.420;2022-12-07T15:05:24;9.30;99.90
20856;DHT22;63058;49.424;8.420;2022-12-07T15:07:50;9.20;99.90
20856;DHT22;63058;49.424;8.420;2022-12-07T15:10:22;9.20;99.90
20856;DHT22;63058;49.424;8.420;2022-12-07T15:12:49;9.10;99.90
20856;DHT22;63058;49.424;8.420;2022-12-07T15:15:15;9.10;99.90
20856;DHT22;63058;49.424;8.420;2022-12-07T15:17:41;9.10;99.90
20856;DHT22;63058;49.424;8.420;2022-12-07T15:20:12;9.10;99.90
20856;DHT22;63058;49.424;8.420;2022-12-07T15:22:38;9.00;99.90
20856;DHT22;63058;49.424;8.420;2022-12-07T15:25:04;9.00;99.90
20856;DHT22;63058;49.424;8.420;2022-12-07T15:27:31;9.00;99.90
20856;DHT22;63058;49.424;8.420;2022-12-07T15:29:57;9.00;99.90
20856;DHT22;63058;49.424;8.420;2022-12-07T15:32:22;9.00;99.90
20856;DHT22;63058;49.424;8.420;2022-12-07T15:34:48;9.00;99.90
20856;DHT22;63058;49.424;8.420;2022-12-07T15:37:15;8.90;99.90
20856;DHT22;63058;49.424;8.420;2022-12-07T15:39:41;8.90;99.90
20856;DHT22;63058;49.424;8.420;2022-12-07T15:42:07;8.90;99.90
20856;DHT22;63058;49.424;8.420;2022-12-07T15:44:33;8.90;99.90
20856;DHT22;63058;49.424;8.420;2022-12-07T15:47:17;8.90;99.90
20856;DHT22;63058;49.424;8.420;2022-12-07T15:49:43;8.90;99.90
20856;DHT22;63058;49.424;8.420;2022-12-07T15:52:09;8.80;99.90
20856;DHT22;63058;49.424;8.420;2022-12-07T15:54:34;8.90;99.90
20856;DHT22;63058;49.424;8.420;2022-12-07T15:57:00;8.80;99.90
20856;DHT22;63058;49.424;8.420;2022-12-07T15:59:28;8.80;99.90
20856;DHT22;63058;49.424;8.420;2022-12-07T16:01:54;8.90;99.90
20856;DHT22;63058;49.424;8.420;2022-12-07T16:04:20;8.80;99.90
20856;DHT22;63058;49.424;8.420;2022-12-07T16:06:46;8.80;99.90
20856;DHT22;63058;49.424;8.420;2022-12-07T16:09:12;8.80;99.90
20856;DHT22;63058;49.424;8.420;2022-12-07T16:11:37;8.70;99.90
20856;DHT22;63058;49.424;8.420;2022-12-07T16:14:03;8.70;99.90
20856;DHT22;63058;49.424;8.420;2022-12-07T16:16:29;8.70;99.90
20856;DHT22;63058;49.424;8.420;2022-12-07T16:18:57;8.80;99.90
20856;DHT22;63058;49.424;8.420;2022-12-07T16:21:22;8.60;99.90
20856;DHT22;63058;49.424;8.420;2022-12-07T16:23:48;8.60;99.90
20856;DHT22;63058;49.424;8.420;2022-12-07T16:26:17;8.80;99.90
20856;DHT22;63058;49.424;8.420;2022-12-07T16:28:43;8.60;99.90
20856;DHT22;63058;49.424;8.420;2022-12-07T16:31:13;8.50;99.90
20856;DHT22;63058;49.424;8.420;2022-12-07T16:33:41;8.50;99.90
20856;DHT22;63058;49.424;8.420;2022-12-07T18:12:21;7.60;99.90
20856;DHT22;63058;49.424;8.420;2022-12-07T21:12:21;7.30;99.90
20856;DHT22;63058;49.424;8.420;2022-12-07T21:14:47;7.20;99.90
20856;DHT22;63058;49.424;8.420;2022-12-07T21:17:13;7.20;99.90
20856;DHT22;63058;49.424;8.420;2022-12-07T21:19:39;7.20;99.90
20856;DHT22;63058;49.424;8.420;2022-12-07T21:22:05;7.20;99.90
20856;DHT22;63058;49.424;8.420;2022-12-07T21:24:31;7.20;99.90
20856;DHT22;63058;49.424;8.420;2022-12-07T21:26:57;7.10;99.90
20856;DHT22;63058;49.424;8.420;2022-12-07T21:29:23;7.10;99.90
20856;DHT22;63058;49.424;8.420;2022-12-07T21:31:49;7.10;99.90
20856;DHT22;63058;49.424;8.420;2022-12-07T21:34:15;7.00;99.90
20856;DHT22;63058;49.424;8.420;2022-12-07T21:36:40;7.00;99.90
20856;DHT22;63058;49.424;8.420;2022-12-07T21:39:07;7.00;99.90
20856;DHT22;63058;49.424;8.420;2022-12-07T21:41:35;6.90;99.90
20856;DHT22;63058;49.424;8.420;2022-12-07T21:44:04;6.90;99.90
20856;DHT22;63058;49.424;8.420;2022-12-07T21:46:30;6.90;99.90
20856;DHT22;63058;49.424;8.420;2022-12-07T21:48:58;6.90;99.90
20856;DHT22;63058;49.424;8.420;2022-12-07T21:51:25;6.90;99.90
20856;DHT22;63058;49.424;8.420;2022-12-07T21:53:53;6.90;99.90
20856;DHT22;63058;49.424;8.420;2022-12-07T21:56:27;6.90;99.90
20856;DHT22;63058;49.424;8.420;2022-12-07T21:58:57;6.90;99.90
20856;DHT22;63058;49.424;8.420;2022-12-07T22:01:25;6.90;99.90
20856;DHT22;63058;49.424;8.420;2022-12-07T22:03:52;6.90;99.90
20856;DHT22;63058;49.424;8.420;2022-12-07T22:06:22;6.90;99.90
20856;DHT22;63058;49.424;8.420;2022-12-07T22:08:49;6.90;99.90
20856;DHT22;63058;49.424;8.420;2022-12-07T22:11:15;6.90;99.90
20856;DHT22;63058;49.424;8.420;2022-12-07T22:13:42;6.90;99.90
20856;DHT22;63058;49.424;8.420;2022-12-07T22:16:27;6.90;99.90
20856;DHT22;63058;49.424;8.420;2022-12-07T22:18:53;6.90;99.90
20856;DHT22;63058;49.424;8.420;2022-12-07T22:21:19;6.90;99.90
20856;DHT22;63058;49.424;8.420;2022-12-07T22:23:45;6.80;99.90
20856;DHT22;63058;49.424;8.420;2022-12-07T22:26:13;6.90;99.90
20856;DHT22;63058;49.424;8.420;2022-12-07T22:28:40;6.80;99.90
20856;DHT22;63058;49.424;8.420;2022-12-07T22:31:08;6.80;99.90
20856;DHT22;63058;49.424;8.420;2022-12-07T22:33:35;6.80;99.90
20856;DHT22;63058;49.424;8.420;2022-12-07T22:36:01;6.90;99.90
20856;DHT22;63058;49.424;8.420;2022-12-07T22:38:27;6.90;99.90
20856;DHT22;63058;49.424;8.420;2022-12-07T22:40:54;6.90;99.90
20856;DHT22;63058;49.424;8.420;2022-12-07T22:43:20;7.00;99.90
20856;DHT22;63058;49.424;8.420;2022-12-07T22:45:58;7.00;99.90
20856;DHT22;63058;49.424;8.420;2022-12-07T22:48:26;7.00;99.90
20856;DHT22;63058;49.424;8.420;2022-12-07T22:50:53;7.10;99.90
20856;DHT22;63058;49.424;8.420;2022-12-07T22:53:23;7.00;99.90
20856;DHT22;63058;49.424;8.420;2022-12-07T22:55:50;7.00;99.90
20856;DHT22;63058;49.424;8.420;2022-12-07T22:58:18;7.00;99.90
20856;DHT22;63058;49.424;8.420;2022-12-07T23:00:44;7.10;99.90
20856;DHT22;63058;49.424;8.420;2022-12-07T23:03:10;7.00;99.90
20856;DHT22;63058;49.424;8.420;2022-12-07T23:05:44;7.00;99.90
20856;DHT22;63058;49.424;8.420;2022-12-07T23:08:10;7.00;99.90
20856;DHT22;63058;49.424;8.420;2022-12-07T23:10:41;7.00;99.90
20856;DHT22;63058;49.424;8.420;2022-12-07T23:13:10;7.00;99.90
20856;DHT22;63058;49.424;8.420;2022-12-07T23:15:54;7.00;99.90
20856;DHT22;63058;49.424;8.420;2022-12-07T23:18:20;7.00;99.90
20856;DHT22;63058;49.424;8.420;2022-12-07T23:20:46;7.00;99.90
20856;DHT22;63058;49.424;8.420;2022-12-07T23:23:12;6.90;99.90
20856;DHT22;63058;49.424;8.420;2022-12-07T23:25:37;6.90;99.90
20856;DHT22;63058;49.424;8.420;2022-12-07T23:28:03;6.80;99.90
20856;DHT22;63058;49.424;8.420;2022-12-07T23:30:29;6.90;99.90
20856;DHT22;63058;49.424;8.420;2022-12-07T23:32:55;6.90;99.90
20856;DHT22;63058;49.424;8.420;2022-12-07T23:35:22;6.90;99.90
20856;DHT22;63058;49.424;8.420;2022-12-07T23:37:47;6.80;99.90
20856;DHT22;63058;49.424;8.420;2022-12-07T23:40:13;6.80;99.90
20856;DHT22;63058;49.424;8.420;2022-12-07T23:42:39;6.80;99.90
20856;DHT22;63058;49.424;8.420;2022-12-07T23:45:05;6.70;99.90
20856;DHT22;63058;49.424;8.420;2022-12-07T23:47:31;6.70;99.90
20856;DHT22;63058;49.424;8.420;2022-12-07T23:49:56;6.70;99.90
20856;DHT22;63058;49.424;8.420;2022-12-07T23:52:22;6.70;99.90
20856;DHT22;63058;49.424;8.420;2022-12-07T23:54:48;6.70;99.90
20856;DHT22;63058;49.424;8.420;2022-12-07T23:57:14;6.70;99.90
20856;DHT22;63058;49.424;8.420;2022-12-07T23:59:40;6.80;99.90
